sensor_id;sensor_type;location;lat;lon;timestamp;pressure;altitude;pressure_sealevel;temperature;humidity
12775;BME280;6451;42.630;23.382;2023-02-13T00:01:22;96052.41;;;-0.62;100.00
12775;BME280;6451;42.630;23.382;2023-02-13T00:03:49;96107.69;;;-0.34;100.00
12775;BME280;6451;42.630;23.382;2023-02-13T00:06:16;96124.25;;;-0.20;100.00
12775;BME280;6451;42.630;23.382;2023-02-13T00:08:43;96131.53;;;-0.16;100.00
12775;BME280;6451;42.630;23.382;2023-02-13T00:11:11;96130.97;;;-0.18;100.00
12775;BME280;6451;42.630;23.382;2023-02-13T00:13:39;96051.13;;;-0.60;100.00
12775;BME280;6451;42.630;23.382;2023-02-13T00:16:09;96140.81;;;-0.18;100.00
12775;BME280;6451;42.630;23.382;2023-02-13T00:18:36;96130.28;;;-0.25;100.00
12775;BME280;6451;42.630;23.382;2023-02-13T00:21:05;96142.81;;;-0.25;100.00
12775;BME280;6451;42.630;23.382;2023-02-13T00:23:34;96144.22;;;-0.23;100.00
12775;BME280;6451;42.630;23.382;2023-02-13T00:26:07;96148.97;;;-0.37;100.00
12775;BME280;6451;42.630;23.382;2023-02-13T00:28:35;96153.84;;;-0.34;100.00
12775;BME280;6451;42.630;23.382;2023-02-13T00:31:04;96122.53;;;-0.50;100.00
12775;BME280;6451;42.630;23.382;2023-02-13T00:33:31;96143.88;;;-0.50;100.00
12775;BME280;6451;42.630;23.382;2023-02-13T00:36:04;96148.72;;;-0.59;100.00
12775;BME280;6451;42.630;23.382;2023-02-13T00:38:32;96128.81;;;-0.68;100.00
12775;BME280;6451;42.630;23.382;2023-02-13T00:40:59;96154.19;;;-0.53;100.00
12775;BME280;6451;42.630;23.382;2023-02-13T00:43:26;96152.31;;;-0.65;100.00
12775;BME280;6451;42.630;23.382;2023-02-13T00:45:54;96102.38;;;-0.81;100.00
12775;BME280;6451;42.630;23.382;2023-02-13T00:48:24;96152.44;;;-0.48;100.00
12775;BME280;6451;42.630;23.382;2023-02-13T00:50:51;96083.34;;;-0.96;100.00
12775;BME280;6451;42.630;23.382;2023-02-13T00:53:18;96152.44;;;-0.36;100.00
12775;BME280;6451;42.630;23.382;2023-02-13T00:55:45;96152.81;;;-0.44;100.00
12775;BME280;6451;42.630;23.382;2023-02-13T00:58:12;96149.19;;;-0.50;100.00
12775;BME280;6451;42.630;23.382;2023-02-13T01:00:39;96160.91;;;-0.39;100.00
12775;BME280;6451;42.630;23.382;2023-02-13T01:03:08;96160.78;;;-0.33;100.00
12775;BME280;6451;42.630;23.382;2023-02-13T01:05:35;96134.13;;;-0.44;100.00
12775;BME280;6451;42.630;23.382;2023-02-13T01:08:02;96167.28;;;-0.29;100.00
12775;BME280;6451;42.630;23.382;2023-02-13T01:10:29;96163.22;;;-0.31;100.00
12775;BME280;6451;42.630;23.382;2023-02-13T01:12:56;96159.28;;;-0.40;100.00
12775;BME280;6451;42.630;23.382;2023-02-13T01:15:23;96133.78;;;-0.48;100.00
12775;BME280;6451;42.630;23.382;2023-02-13T01:17:52;96106.66;;;-0.80;100.00
12775;BME280;6451;42.630;23.382;2023-02-13T01:20:20;96148.16;;;-0.61;100.00
12775;BME280;6451;42.630;23.382;2023-02-13T01:22:47;96166.81;;;-0.49;100.00
12775;BME280;6451;42.630;23.382;2023-02-13T01:25:15;96110.13;;;-0.79;100.00
12775;BME280;6451;42.630;23.382;2023-02-13T01:27:42;96161.03;;;-0.58;100.00
12775;BME280;6451;42.630;23.382;2023-02-13T01:30:11;96066.53;;;-1.20;100.00
12775;BME280;6451;42.630;23.382;2023-02-13T01:32:40;96152.31;;;-0.65;100.00
12775;BME280;6451;42.630;23.382;2023-02-13T01:35:07;96167.97;;;-0.57;100.00
12775;BME280;6451;42.630;23.382;2023-02-13T01:37:36;96158.69;;;-0.66;100.00
12775;BME280;6451;42.630;23.382;2023-02-13T01:40:05;96169.97;;;-0.52;100.00
12775;BME280;6451;42.630;23.382;2023-02-13T01:42:34;96139.81;;;-0.52;100.00
12775;BME280;6451;42.630;23.382;2023-02-13T01:45:04;96163.00;;;-0.41;100.00
12775;BME280;6451;42.630;23.382;2023-02-13T01:47:35;96173.22;;;-0.38;100.00
12775;BME280;6451;42.630;23.382;2023-02-13T01:50:09;96146.88;;;-0.46;100.00
12775;BME280;6451;42.630;23.382;2023-02-13T01:52:48;96171.81;;;-0.41;100.00
12775;BME280;6451;42.630;23.382;2023-02-13T01:55:18;96179.22;;;-0.31;100.00
12775;BME280;6451;42.630;23.382;2023-02-13T01:57:49;96176.09;;;-0.28;100.00
12775;BME280;6451;42.630;23.382;2023-02-13T02:00:18;96173.66;;;-0.18;100.00
12775;BME280;6451;42.630;23.382;2023-02-13T02:02:48;96177.38;;;-0.19;100.00
12775;BME280;6451;42.630;23.382;2023-02-13T02:05:18;96059.25;;;-0.90;100.00
12775;BME280;6451;42.630;23.382;2023-02-13T02:07:47;96173.41;;;-0.05;100.00
12775;BME280;6451;42.630;23.382;2023-02-13T02:10:17;96175.13;;;0.13;100.00
12775;BME280;6451;42.630;23.382;2023-02-13T02:12:49;96167.59;;;0.10;100.00
12775;BME280;6451;42.630;23.382;2023-02-13T02:15:18;96160.03;;;0.19;100.00
12775;BME280;6451;42.630;23.382;2023-02-13T02:17:45;96159.91;;;0.25;100.00
12775;BME280;6451;42.630;23.382;2023-02-13T02:20:19;96164.88;;;0.22;100.00
12775;BME280;6451;42.630;23.382;2023-02-13T02:29:15;96104.41;;;-0.13;100.00
12775;BME280;6451;42.630;23.382;2023-02-13T02:32:09;96167.66;;;0.39;100.00
12775;BME280;6451;42.630;23.382;2023-02-13T02:34:49;96161.00;;;0.41;100.00
12775;BME280;6451;42.630;23.382;2023-02-13T02:37:30;96145.94;;;0.35;100.00
12775;BME280;6451;42.630;23.382;2023-02-13T02:40:11;96156.25;;;0.43;100.00
12775;BME280;6451;42.630;23.382;2023-02-13T02:42:51;96158.66;;;0.45;100.00
12775;BME280;6451;42.630;23.382;2023-02-13T02:45:24;96158.00;;;0.38;100.00
12775;BME280;6451;42.630;23.382;2023-02-13T02:47:59;96185.16;;;0.75;100.00
12775;BME280;6451;42.630;23.382;2023-02-13T02:50:51;96193.50;;;0.38;100.00
12775;BME280;6451;42.630;23.382;2023-02-13T02:53:30;96181.88;;;0.44;100.00
12775;BME280;6451;42.630;23.382;2023-02-13T02:56:06;96156.91;;;0.50;100.00
12775;BME280;6451;42.630;23.382;2023-02-13T02:58:37;96189.34;;;0.42;100.00
12775;BME280;6451;42.630;23.382;2023-02-13T03:01:25;96200.47;;;0.51;100.00
12775;BME280;6451;42.630;23.382;2023-02-13T03:04:18;96179.06;;;0.63;100.00
12775;BME280;6451;42.630;23.382;2023-02-13T03:07:06;96203.97;;;0.80;100.00
12775;BME280;6451;42.630;23.382;2023-02-13T03:09:37;96188.63;;;0.75;100.00
12775;BME280;6451;42.630;23.382;2023-02-13T03:12:23;96184.44;;;0.79;100.00
12775;BME280;6451;42.630;23.382;2023-02-13T03:15:10;96201.78;;;0.77;100.00
12775;BME280;6451;42.630;23.382;2023-02-13T03:17:37;96184.56;;;0.85;100.00
12775;BME280;6451;42.630;23.382;2023-02-13T03:20:31;96177.00;;;0.81;100.00
12775;BME280;6451;42.630;23.382;2023-02-13T03:23:22;96183.56;;;0.91;100.00
12775;BME280;6451;42.630;23.382;2023-02-13T03:26:08;96191.38;;;0.92;100.00
12775;BME280;6451;42.630;23.382;2023-02-13T03:28:42;96173.50;;;0.81;100.00
12775;BME280;6451;42.630;23.382;2023-02-13T03:31:35;96190.41;;;0.70;100.00
12775;BME280;6451;42.630;23.382;2023-02-13T03:34:06;96188.59;;;0.87;100.00
12775;BME280;6451;42.630;23.382;2023-02-13T03:36:45;96189.69;;;0.74;100.00
12775;BME280;6451;42.630;23.382;2023-02-13T03:39:42;96201.63;;;0.83;100.00
12775;BME280;6451;42.630;23.382;2023-02-13T03:42:17;96174.84;;;0.67;100.00
12775;BME280;6451;42.630;23.382;2023-02-13T03:44:50;96188.19;;;0.78;100.00
12775;BME280;6451;42.630;23.382;2023-02-13T03:47:40;96174.69;;;0.85;100.00
12775;BME280;6451;42.630;23.382;2023-02-13T03:50:09;96194.78;;;1.04;100.00
12775;BME280;6451;42.630;23.382;2023-02-13T03:52:43;95983.06;;;-0.50;100.00
12775;BME280;6451;42.630;23.382;2023-02-13T03:55:14;96201.72;;;0.89;100.00
12775;BME280;6451;42.630;23.382;2023-02-13T03:58:04;96202.13;;;0.97;100.00
12775;BME280;6451;42.630;23.382;2023-02-13T04:00:53;96189.72;;;0.91;100.00
12775;BME280;6451;42.630;23.382;2023-02-13T04:03:24;96191.16;;;0.82;100.00
12775;BME280;6451;42.630;23.382;2023-02-13T04:05:55;96179.56;;;0.76;100.00
12775;BME280;6451;42.630;23.382;2023-02-13T04:08:28;96198.88;;;0.78;100.00
12775;BME280;6451;42.630;23.382;2023-02-13T04:10:59;96188.59;;;0.87;100.00
12775;BME280;6451;42.630;23.382;2023-02-13T04:13:32;96202.59;;;0.77;100.00
12775;BME280;6451;42.630;23.382;2023-02-13T04:16:04;96187.78;;;0.58;100.00
12775;BME280;6451;42.630;23.382;2023-02-13T04:18:33;96201.84;;;0.82;100.00
12775;BME280;6451;42.630;23.382;2023-02-13T04:21:02;96199.59;;;0.91;100.00
12775;BME280;6451;42.630;23.382;2023-02-13T04:23:31;96187.81;;;0.75;100.00
12775;BME280;6451;42.630;23.382;2023-02-13T04:26:00;96117.56;;;0.17;100.00
12775;BME280;6451;42.630;23.382;2023-02-13T04:28:28;96199.25;;;0.70;100.00
12775;BME280;6451;42.630;23.382;2023-02-13T04:30:55;96209.63;;;0.83;100.00
12775;BME280;6451;42.630;23.382;2023-02-13T04:33:22;95940.84;;;-0.82;100.00
12775;BME280;6451;42.630;23.382;2023-02-13T04:35:49;96184.47;;;0.68;100.00
12775;BME280;6451;42.630;23.382;2023-02-13T04:38:16;96203.00;;;0.58;100.00
12775;BME280;6451;42.630;23.382;2023-02-13T04:40:44;96191.59;;;0.62;100.00
12775;BME280;6451;42.630;23.382;2023-02-13T04:43:12;96188.06;;;0.73;100.00
12775;BME280;6451;42.630;23.382;2023-02-13T04:45:39;96168.22;;;0.41;100.00
12775;BME280;6451;42.630;23.382;2023-02-13T04:48:07;96174.59;;;0.68;100.00
12775;BME280;6451;42.630;23.382;2023-02-13T04:50:34;96174.38;;;0.70;100.00
12775;BME280;6451;42.630;23.382;2023-02-13T04:53:01;96169.78;;;0.53;100.00
12775;BME280;6451;42.630;23.382;2023-02-13T04:55:28;96193.03;;;0.81;100.00
12775;BME280;6451;42.630;23.382;2023-02-13T04:58:00;96211.59;;;0.88;100.00
12775;BME280;6451;42.630;23.382;2023-02-13T05:00:28;96206.81;;;0.90;100.00
12775;BME280;6451;42.630;23.382;2023-02-13T05:02:59;96207.88;;;0.89;100.00
12775;BME280;6451;42.630;23.382;2023-02-13T05:05:26;96189.31;;;0.54;100.00
12775;BME280;6451;42.630;23.382;2023-02-13T05:07:53;96195.00;;;0.86;100.00
12775;BME280;6451;42.630;23.382;2023-02-13T05:10:20;96195.94;;;0.80;100.00
12775;BME280;6451;42.630;23.382;2023-02-13T05:12:47;96194.59;;;0.66;100.00
12775;BME280;6451;42.630;23.382;2023-02-13T05:15:15;96206.88;;;0.78;100.00
12775;BME280;6451;42.630;23.382;2023-02-13T05:17:43;96167.84;;;0.49;100.00
12775;BME280;6451;42.630;23.382;2023-02-13T05:20:10;96216.31;;;0.69;100.00
12775;BME280;6451;42.630;23.382;2023-02-13T05:22:42;96199.28;;;0.59;100.00
12775;BME280;6451;42.630;23.382;2023-02-13T05:25:27;96220.19;;;0.62;100.00
12775;BME280;6451;42.630;23.382;2023-02-13T05:27:54;96156.69;;;0.12;100.00
12775;BME280;6451;42.630;23.382;2023-02-13T05:30:22;96231.09;;;0.60;100.00
12775;BME280;6451;42.630;23.382;2023-02-13T05:32:48;96232.50;;;0.63;100.00
12775;BME280;6451;42.630;23.382;2023-02-13T05:35:17;96236.66;;;0.59;100.00
12775;BME280;6451;42.630;23.382;2023-02-13T05:37:44;96217.47;;;0.33;100.00
12775;BME280;6451;42.630;23.382;2023-02-13T05:40:13;96233.94;;;0.42;100.00
12775;BME280;6451;42.630;23.382;2023-02-13T05:42:40;96226.41;;;0.39;100.00
12775;BME280;6451;42.630;23.382;2023-02-13T05:45:08;96219.44;;;0.26;100.00
12775;BME280;6451;42.630;23.382;2023-02-13T05:47:37;96228.91;;;0.45;100.00
12775;BME280;6451;42.630;23.382;2023-02-13T05:50:05;96242.19;;;0.40;100.00
12775;BME280;6451;42.630;23.382;2023-02-13T05:52:32;96222.03;;;0.61;100.00
12775;BME280;6451;42.630;23.382;2023-02-13T05:54:59;96237.84;;;0.51;100.00
12775;BME280;6451;42.630;23.382;2023-02-13T05:57:26;96240.06;;;0.42;100.00
12775;BME280;6451;42.630;23.382;2023-02-13T05:59:53;96233.56;;;0.38;100.00
12775;BME280;6451;42.630;23.382;2023-02-13T06:02:19;96245.06;;;0.50;100.00
12775;BME280;6451;42.630;23.382;2023-02-13T06:04:48;96224.69;;;0.61;100.00
12775;BME280;6451;42.630;23.382;2023-02-13T06:07:14;96240.44;;;0.86;100.00
12775;BME280;6451;42.630;23.382;2023-02-13T06:09:42;96245.97;;;0.96;100.00
12775;BME280;6451;42.630;23.382;2023-02-13T06:12:08;96251.91;;;1.60;100.00
12775;BME280;6451;42.630;23.382;2023-02-13T06:14:36;96257.44;;;1.71;100.00
12775;BME280;6451;42.630;23.382;2023-02-13T06:17:03;96252.91;;;1.54;100.00
12775;BME280;6451;42.630;23.382;2023-02-13T06:19:30;96247.44;;;1.49;100.00
12775;BME280;6451;42.630;23.382;2023-02-13T06:21:58;96245.69;;;1.72;100.00
12775;BME280;6451;42.630;23.382;2023-02-13T06:24:25;96260.28;;;1.81;100.00
12775;BME280;6451;42.630;23.382;2023-02-13T06:26:52;96243.88;;;1.60;100.00
12775;BME280;6451;42.630;23.382;2023-02-13T06:29:19;96236.09;;;1.76;100.00
12775;BME280;6451;42.630;23.382;2023-02-13T06:31:46;96253.56;;;1.61;100.00
12775;BME280;6451;42.630;23.382;2023-02-13T06:34:13;96264.66;;;1.70;100.00
12775;BME280;6451;42.630;23.382;2023-02-13T06:36:40;96265.53;;;1.76;100.00
12775;BME280;6451;42.630;23.382;2023-02-13T06:39:09;96250.63;;;1.63;100.00
12775;BME280;6451;42.630;23.382;2023-02-13T06:41:39;96268.16;;;1.71;100.00
12775;BME280;6451;42.630;23.382;2023-02-13T06:44:08;96220.75;;;1.37;100.00
12775;BME280;6451;42.630;23.382;2023-02-13T06:46:35;96242.50;;;1.58;100.00
12775;BME280;6451;42.630;23.382;2023-02-13T06:49:01;96257.97;;;1.39;100.00
12775;BME280;6451;42.630;23.382;2023-02-13T06:51:28;96257.91;;;1.51;100.00
12775;BME280;6451;42.630;23.382;2023-02-13T06:53:55;96266.03;;;1.73;100.00
12775;BME280;6451;42.630;23.382;2023-02-13T06:56:24;96269.38;;;1.80;100.00
12775;BME280;6451;42.630;23.382;2023-02-13T06:58:52;96267.50;;;1.80;100.00
12775;BME280;6451;42.630;23.382;2023-02-13T07:01:20;96261.31;;;1.97;100.00
12775;BME280;6451;42.630;23.382;2023-02-13T07:03:47;96263.44;;;1.94;100.00
12775;BME280;6451;42.630;23.382;2023-02-13T07:06:16;96263.75;;;1.98;100.00
12775;BME280;6451;42.630;23.382;2023-02-13T07:08:44;96238.78;;;2.09;100.00
12775;BME280;6451;42.630;23.382;2023-02-13T07:11:16;96257.44;;;2.43;100.00
12775;BME280;6451;42.630;23.382;2023-02-13T07:13:45;96250.47;;;2.42;100.00
12775;BME280;6451;42.630;23.382;2023-02-13T07:16:12;96225.13;;;2.11;100.00
12775;BME280;6451;42.630;23.382;2023-02-13T07:18:39;96167.09;;;1.44;100.00
12775;BME280;6451;42.630;23.382;2023-02-13T07:21:06;96254.91;;;1.98;100.00
12775;BME280;6451;42.630;23.382;2023-02-13T07:23:33;96248.19;;;1.61;100.00
12775;BME280;6451;42.630;23.382;2023-02-13T07:26:00;96246.41;;;1.50;100.00
12775;BME280;6451;42.630;23.382;2023-02-13T07:28:28;96253.31;;;1.63;100.00
12775;BME280;6451;42.630;23.382;2023-02-13T07:30:57;96273.56;;;1.59;100.00
12775;BME280;6451;42.630;23.382;2023-02-13T07:33:23;96271.88;;;1.70;100.00
12775;BME280;6451;42.630;23.382;2023-02-13T07:35:51;96268.47;;;2.08;100.00
12775;BME280;6451;42.630;23.382;2023-02-13T07:38:19;96271.88;;;2.03;100.00
12775;BME280;6451;42.630;23.382;2023-02-13T07:40:46;96272.03;;;1.97;100.00
12775;BME280;6451;42.630;23.382;2023-02-13T07:43:14;96268.69;;;2.06;100.00
12775;BME280;6451;42.630;23.382;2023-02-13T07:45:41;96265.66;;;2.36;100.00
12775;BME280;6451;42.630;23.382;2023-02-13T07:48:09;96242.19;;;1.88;100.00
12775;BME280;6451;42.630;23.382;2023-02-13T07:50:36;96232.84;;;1.90;100.00
12775;BME280;6451;42.630;23.382;2023-02-13T07:53:03;96208.53;;;1.75;100.00
12775;BME280;6451;42.630;23.382;2023-02-13T07:55:30;96266.06;;;2.28;100.00
12775;BME280;6451;42.630;23.382;2023-02-13T07:57:59;96245.09;;;2.03;100.00
12775;BME280;6451;42.630;23.382;2023-02-13T08:00:26;96263.94;;;2.47;100.00
12775;BME280;6451;42.630;23.382;2023-02-13T08:02:53;96254.00;;;2.26;100.00
12775;BME280;6451;42.630;23.382;2023-02-13T08:05:22;96265.81;;;2.68;100.00
12775;BME280;6451;42.630;23.382;2023-02-13T08:07:49;96252.63;;;2.62;100.00
12775;BME280;6451;42.630;23.382;2023-02-13T08:10:16;96255.53;;;2.38;100.00
12775;BME280;6451;42.630;23.382;2023-02-13T08:13:00;96254.03;;;2.47;100.00
12775;BME280;6451;42.630;23.382;2023-02-13T08:15:27;96251.56;;;2.85;100.00
12775;BME280;6451;42.630;23.382;2023-02-13T08:17:54;96264.78;;;2.31;100.00
12775;BME280;6451;42.630;23.382;2023-02-13T08:20:23;96258.84;;;2.29;100.00
12775;BME280;6451;42.630;23.382;2023-02-13T08:22:50;96260.50;;;2.13;100.00
12775;BME280;6451;42.630;23.382;2023-02-13T08:25:17;96253.78;;;2.10;100.00
12775;BME280;6451;42.630;23.382;2023-02-13T08:27:44;96260.25;;;2.31;100.00
12775;BME280;6451;42.630;23.382;2023-02-13T08:30:12;96268.78;;;2.11;100.00
12775;BME280;6451;42.630;23.382;2023-02-13T08:32:40;96265.00;;;2.07;100.00
12775;BME280;6451;42.630;23.382;2023-02-13T08:35:08;96248.31;;;2.22;100.00
12775;BME280;6451;42.630;23.382;2023-02-13T08:37:36;96258.16;;;2.16;100.00
12775;BME280;6451;42.630;23.382;2023-02-13T08:40:04;96264.41;;;2.61;100.00
12775;BME280;6451;42.630;23.382;2023-02-13T08:42:34;96234.41;;;2.42;100.00
12775;BME280;6451;42.630;23.382;2023-02-13T08:45:01;96240.44;;;2.32;100.00
12775;BME280;6451;42.630;23.382;2023-02-13T08:47:30;96263.19;;;2.73;100.00
12775;BME280;6451;42.630;23.382;2023-02-13T08:49:57;96271.31;;;2.57;100.00
12775;BME280;6451;42.630;23.382;2023-02-13T08:52:25;96268.81;;;2.72;100.00
12775;BME280;6451;42.630;23.382;2023-02-13T08:54:55;96265.06;;;2.73;100.00
12775;BME280;6451;42.630;23.382;2023-02-13T08:57:22;96276.22;;;2.65;100.00
12775;BME280;6451;42.630;23.382;2023-02-13T08:59:49;96277.13;;;2.32;100.00
12775;BME280;6451;42.630;23.382;2023-02-13T09:02:16;96261.34;;;2.35;100.00
12775;BME280;6451;42.630;23.382;2023-02-13T09:04:43;96268.25;;;2.48;100.00
12775;BME280;6451;42.630;23.382;2023-02-13T09:07:10;96263.97;;;2.30;100.00
12775;BME280;6451;42.630;23.382;2023-02-13T09:09:37;96253.09;;;2.59;100.00
12775;BME280;6451;42.630;23.382;2023-02-13T09:12:06;96267.44;;;2.91;100.00
12775;BME280;6451;42.630;23.382;2023-02-13T09:14:34;96245.31;;;2.79;100.00
12775;BME280;6451;42.630;23.382;2023-02-13T09:17:03;96266.44;;;2.97;100.00
12775;BME280;6451;42.630;23.382;2023-02-13T09:19:30;96247.75;;;2.81;100.00
12775;BME280;6451;42.630;23.382;2023-02-13T09:21:57;96249.53;;;2.75;100.00
12775;BME280;6451;42.630;23.382;2023-02-13T09:24:25;96249.59;;;3.02;100.00
12775;BME280;6451;42.630;23.382;2023-02-13T09:27:03;96237.72;;;3.20;100.00
12775;BME280;6451;42.630;23.382;2023-02-13T09:29:32;96248.97;;;3.44;100.00
12775;BME280;6451;42.630;23.382;2023-02-13T09:31:59;96256.66;;;3.62;100.00
12775;BME280;6451;42.630;23.382;2023-02-13T09:34:26;96232.38;;;3.52;100.00
12775;BME280;6451;42.630;23.382;2023-02-13T09:36:53;96245.41;;;3.65;100.00
12775;BME280;6451;42.630;23.382;2023-02-13T09:39:20;96235.81;;;4.11;100.00
12775;BME280;6451;42.630;23.382;2023-02-13T09:41:49;96234.25;;;4.15;100.00
12775;BME280;6451;42.630;23.382;2023-02-13T09:44:19;96240.44;;;3.52;100.00
12775;BME280;6451;42.630;23.382;2023-02-13T09:47:04;96223.16;;;3.38;100.00
12775;BME280;6451;42.630;23.382;2023-02-13T09:49:36;96229.81;;;3.62;100.00
12775;BME280;6451;42.630;23.382;2023-02-13T09:52:04;96228.97;;;3.29;100.00
12775;BME280;6451;42.630;23.382;2023-02-13T09:54:35;96186.13;;;3.40;100.00
12775;BME280;6451;42.630;23.382;2023-02-13T09:57:07;96219.34;;;3.98;100.00
12775;BME280;6451;42.630;23.382;2023-02-13T09:59:54;96219.75;;;4.22;100.00
12775;BME280;6451;42.630;23.382;2023-02-13T10:02:36;96209.66;;;3.92;100.00
12775;BME280;6451;42.630;23.382;2023-02-13T10:05:20;96187.84;;;3.88;100.00
12775;BME280;6451;42.630;23.382;2023-02-13T10:07:54;96198.16;;;4.06;100.00
12775;BME280;6451;42.630;23.382;2023-02-13T10:10:29;96190.38;;;4.52;100.00
12775;BME280;6451;42.630;23.382;2023-02-13T10:13:10;96190.38;;;3.62;100.00
12775;BME280;6451;42.630;23.382;2023-02-13T10:15:45;96193.13;;;3.73;100.00
12775;BME280;6451;42.630;23.382;2023-02-13T10:18:17;96184.34;;;3.50;100.00
12775;BME280;6451;42.630;23.382;2023-02-13T10:20:48;96177.44;;;3.27;100.00
12775;BME280;6451;42.630;23.382;2023-02-13T10:23:22;96203.50;;;3.32;100.00
12775;BME280;6451;42.630;23.382;2023-02-13T10:25:53;96197.06;;;3.33;100.00
12775;BME280;6451;42.630;23.382;2023-02-13T10:28:33;96197.38;;;3.37;100.00
12775;BME280;6451;42.630;23.382;2023-02-13T10:31:06;96108.16;;;2.87;100.00
12775;BME280;6451;42.630;23.382;2023-02-13T10:33:41;96177.88;;;3.46;100.00
12775;BME280;6451;42.630;23.382;2023-02-13T10:36:18;96169.22;;;3.71;100.00
12775;BME280;6451;42.630;23.382;2023-02-13T10:38:55;96161.41;;;3.70;100.00
12775;BME280;6451;42.630;23.382;2023-02-13T10:41:30;96165.16;;;3.31;100.00
12775;BME280;6451;42.630;23.382;2023-02-13T10:44:16;96165.28;;;3.52;100.00
12775;BME280;6451;42.630;23.382;2023-02-13T10:46:55;96154.34;;;3.58;100.00
12775;BME280;6451;42.630;23.382;2023-02-13T10:49:39;96150.63;;;3.65;100.00
12775;BME280;6451;42.630;23.382;2023-02-13T10:52:20;96130.16;;;3.53;100.00
12775;BME280;6451;42.630;23.382;2023-02-13T10:55:00;96077.56;;;3.20;100.00
12775;BME280;6451;42.630;23.382;2023-02-13T10:57:34;96139.75;;;3.81;100.00
12775;BME280;6451;42.630;23.382;2023-02-13T11:00:13;96149.41;;;3.82;100.00
12775;BME280;6451;42.630;23.382;2023-02-13T11:02:44;96143.09;;;3.61;100.00
12775;BME280;6451;42.630;23.382;2023-02-13T11:05:16;96120.09;;;3.71;100.00
12775;BME280;6451;42.630;23.382;2023-02-13T11:07:47;96114.75;;;3.76;100.00
12775;BME280;6451;42.630;23.382;2023-02-13T11:10:18;96122.97;;;4.06;100.00
12775;BME280;6451;42.630;23.382;2023-02-13T11:12:46;96113.63;;;4.19;100.00
12775;BME280;6451;42.630;23.382;2023-02-13T11:15:24;96111.53;;;4.36;100.00
12775;BME280;6451;42.630;23.382;2023-02-13T11:17:54;96104.59;;;4.51;100.00
12775;BME280;6451;42.630;23.382;2023-02-13T11:20:30;96102.22;;;4.54;100.00
12775;BME280;6451;42.630;23.382;2023-02-13T11:23:16;96091.47;;;4.59;100.00
12775;BME280;6451;42.630;23.382;2023-02-13T11:25:55;96080.47;;;4.81;100.00
12775;BME280;6451;42.630;23.382;2023-02-13T11:28:23;96066.75;;;4.83;100.00
12775;BME280;6451;42.630;23.382;2023-02-13T11:30:50;96082.66;;;4.89;100.00
12775;BME280;6451;42.630;23.382;2023-02-13T11:33:22;96071.34;;;4.82;100.00
12775;BME280;6451;42.630;23.382;2023-02-13T11:36:04;96067.28;;;4.74;100.00
12775;BME280;6451;42.630;23.382;2023-02-13T11:38:32;96066.00;;;5.02;100.00
12775;BME280;6451;42.630;23.382;2023-02-13T11:41:08;96067.34;;;5.00;100.00
12775;BME280;6451;42.630;23.382;2023-02-13T11:43:42;96050.13;;;5.01;100.00
12775;BME280;6451;42.630;23.382;2023-02-13T11:46:15;95974.53;;;4.77;100.00
12775;BME280;6451;42.630;23.382;2023-02-13T11:48:55;96041.78;;;5.02;100.00
12775;BME280;6451;42.630;23.382;2023-02-13T11:51:36;96039.34;;;5.01;100.00
12775;BME280;6451;42.630;23.382;2023-02-13T11:54:04;96033.66;;;5.43;100.00
12775;BME280;6451;42.630;23.382;2023-02-13T11:56:47;96019.94;;;5.40;100.00
12775;BME280;6451;42.630;23.382;2023-02-13T11:59:14;96017.50;;;5.48;100.00
12775;BME280;6451;42.630;23.382;2023-02-13T12:01:42;96015.59;;;5.64;100.00
12775;BME280;6451;42.630;23.382;2023-02-13T12:04:15;96015.06;;;5.62;100.00
12775;BME280;6451;42.630;23.382;2023-02-13T12:06:59;95986.00;;;5.54;100.00
12775;BME280;6451;42.630;23.382;2023-02-13T12:09:27;95975.25;;;5.49;100.00
12775;BME280;6451;42.630;23.382;2023-02-13T12:11:57;96004.50;;;5.91;100.00
12775;BME280;6451;42.630;23.382;2023-02-13T12:14:31;95961.44;;;5.71;100.00
12775;BME280;6451;42.630;23.382;2023-02-13T12:17:04;96007.19;;;5.81;100.00
12775;BME280;6451;42.630;23.382;2023-02-13T12:19:35;96012.66;;;5.61;100.00
12775;BME280;6451;42.630;23.382;2023-02-13T12:22:31;95994.84;;;5.70;100.00
12775;BME280;6451;42.630;23.382;2023-02-13T12:25:18;95987.78;;;5.94;100.00
12775;BME280;6451;42.630;23.382;2023-02-13T12:28:05;96002.00;;;6.10;99.34
12775;BME280;6451;42.630;23.382;2023-02-13T12:30:56;95994.00;;;5.84;97.12
12775;BME280;6451;42.630;23.382;2023-02-13T12:33:43;95940.50;;;5.52;95.09
12775;BME280;6451;42.630;23.382;2023-02-13T12:36:17;95928.09;;;5.56;92.54
12775;BME280;6451;42.630;23.382;2023-02-13T12:39:00;96000.44;;;5.89;90.66
12775;BME280;6451;42.630;23.382;2023-02-13T12:41:38;95988.03;;;5.88;90.63
12775;BME280;6451;42.630;23.382;2023-02-13T12:47:13;95964.69;;;5.68;90.13
12775;BME280;6451;42.630;23.382;2023-02-13T12:52:55;95963.22;;;6.06;87.12
12775;BME280;6451;42.630;23.382;2023-02-13T12:58:40;95949.38;;;6.23;86.76
12775;BME280;6451;42.630;23.382;2023-02-13T13:01:19;95972.47;;;6.39;85.22
12775;BME280;6451;42.630;23.382;2023-02-13T13:03:58;95956.56;;;6.37;84.94
12775;BME280;6451;42.630;23.382;2023-02-13T13:06:41;95955.97;;;6.46;84.95
12775;BME280;6451;42.630;23.382;2023-02-13T13:09:22;95941.56;;;6.21;82.76
12775;BME280;6451;42.630;23.382;2023-02-13T13:12:11;95964.47;;;6.24;77.85
12775;BME280;6451;42.630;23.382;2023-02-13T13:14:45;95962.34;;;6.16;80.03
12775;BME280;6451;42.630;23.382;2023-02-13T13:17:25;95952.16;;;6.07;80.81
12775;BME280;6451;42.630;23.382;2023-02-13T13:20:01;95931.84;;;6.20;81.03
12775;BME280;6451;42.630;23.382;2023-02-13T13:22:34;95946.31;;;6.34;79.98
12775;BME280;6451;42.630;23.382;2023-02-13T13:25:11;95930.91;;;6.45;79.93
12775;BME280;6451;42.630;23.382;2023-02-13T13:27:48;95939.22;;;6.49;78.55
12775;BME280;6451;42.630;23.382;2023-02-13T13:30:19;95907.16;;;6.03;78.91
12775;BME280;6451;42.630;23.382;2023-02-13T13:32:55;95937.47;;;6.29;78.60
12775;BME280;6451;42.630;23.382;2023-02-13T13:35:24;95916.16;;;6.27;79.77
12775;BME280;6451;42.630;23.382;2023-02-13T13:37:57;95915.81;;;6.44;79.56
12775;BME280;6451;42.630;23.382;2023-02-13T13:40:35;95921.81;;;6.31;77.85